createdAt,value
2023-01-29T07:25:51.633Z,256.00
2023-01-29T07:26:51.628Z,284.00
2023-01-29T07:27:51.602Z,312.00
2023-01-29T07:28:51.619Z,340.00
2023-01-29T07:29:51.595Z,364.00
2023-01-29T07:30:51.580Z,392.00
2023-01-29T07:31:51.668Z,416.00
2023-01-29T07:32:51.559Z,460.00
2023-01-29T07:33:51.539Z,504.00
2023-01-29T07:34:51.543Z,552.00
2023-01-29T07:35:51.511Z,604.00
2023-01-29T07:36:51.499Z,660.00
2023-01-29T07:37:51.495Z,700.00
2023-01-29T07:38:51.533Z,704.00
2023-01-29T07:39:51.481Z,716.00
2023-01-29T07:40:51.458Z,744.00
2023-01-29T07:41:51.454Z,772.00
2023-01-29T07:42:51.447Z,816.00
2023-01-29T07:43:51.431Z,844.00
2023-01-29T07:44:51.420Z,832.00
2023-01-29T07:45:51.493Z,820.00
2023-01-29T07:46:51.390Z,824.00
2023-01-29T07:47:51.388Z,836.00
2023-01-29T07:48:51.367Z,896.00
2023-01-29T07:49:51.374Z,964.00
2023-01-29T07:50:51.355Z,988.00
2023-01-29T07:51:51.359Z,940.00
2023-01-29T07:52:51.331Z,856.00
2023-01-29T07:53:51.317Z,824.00
2023-01-29T07:54:51.321Z,824.00
2023-01-29T07:55:51.316Z,856.00
2023-01-29T07:56:51.301Z,888.00
2023-01-29T07:57:51.286Z,892.00
2023-01-29T07:58:51.269Z,864.00
2023-01-29T07:59:51.248Z,836.00
2023-01-29T08:00:51.280Z,828.00
2023-01-29T08:01:51.261Z,856.00
2023-01-29T08:02:51.225Z,912.00
2023-01-29T08:03:51.557Z,968.00
2023-01-29T08:04:51.202Z,1032.00
2023-01-29T08:05:51.196Z,1064.00
2023-01-29T08:06:51.170Z,1064.00
2023-01-29T08:08:05.336Z,1048.00
2023-01-29T08:08:52.169Z,940.00
2023-01-29T08:09:51.139Z,872.00
2023-01-29T08:10:51.122Z,864.00
2023-01-29T08:11:51.134Z,856.00
2023-01-29T08:12:51.112Z,868.00
2023-01-29T08:13:51.118Z,844.00
2023-01-29T08:14:51.078Z,800.00
2023-01-29T08:15:51.071Z,780.00
2023-01-29T08:16:51.091Z,792.00
2023-01-29T08:17:57.722Z,824.00
2023-01-29T08:18:52.066Z,852.00
2023-01-29T08:19:51.030Z,840.00
2023-01-29T08:20:52.811Z,860.00
2023-01-29T08:21:51.003Z,888.00
2023-01-29T08:22:51.002Z,908.00
2023-01-29T08:23:50.991Z,908.00
2023-01-29T08:24:54.367Z,896.00
2023-01-29T08:25:51.993Z,888.00
2023-01-29T08:26:50.957Z,900.00
2023-01-29T08:27:50.948Z,928.00
2023-01-29T08:28:50.949Z,880.00
2023-01-29T08:29:50.965Z,772.00
2023-01-29T08:30:50.978Z,724.00
2023-01-29T08:31:50.915Z,700.00
2023-01-29T08:32:50.889Z,696.00
2023-01-29T08:33:50.885Z,696.00
2023-01-29T08:34:50.853Z,692.00
2023-01-29T08:35:50.876Z,672.00
2023-01-29T08:36:50.854Z,656.00
2023-01-29T08:37:50.840Z,660.00
2023-01-29T08:38:50.836Z,668.00
2023-01-29T08:39:50.822Z,688.00
2023-01-29T08:40:50.819Z,664.00
2023-01-29T08:41:50.781Z,636.00
2023-01-29T08:42:50.768Z,612.00
2023-01-29T08:43:50.773Z,620.00
2023-01-29T08:44:50.774Z,632.00
2023-01-29T08:45:50.803Z,656.00
2023-01-29T08:46:50.724Z,684.00
2023-01-29T08:47:50.739Z,720.00
2023-01-29T08:48:50.700Z,720.00
2023-01-29T08:49:50.702Z,708.00
2023-01-29T08:50:50.702Z,712.00
2023-01-29T08:51:50.669Z,712.00
2023-01-29T08:52:50.668Z,728.00
2023-01-29T08:53:51.593Z,772.00
2023-01-29T08:54:50.637Z,828.00
2023-01-29T08:55:50.648Z,936.00
2023-01-29T08:56:50.618Z,1012.00
2023-01-29T08:57:50.600Z,1100.00
2023-01-29T08:58:50.598Z,1240.00
2023-01-29T08:59:50.577Z,1336.00
2023-01-29T09:00:50.631Z,1312.00
2023-01-29T09:01:50.568Z,1180.00
2023-01-29T09:02:50.564Z,1160.00
2023-01-29T09:03:50.563Z,1148.00
2023-01-29T09:04:50.535Z,1308.00
2023-01-29T09:05:50.529Z,1324.00
2023-01-29T09:06:50.502Z,1328.00
2023-01-29T09:07:52.623Z,1328.00
2023-01-29T09:08:50.492Z,1292.00
2023-01-29T09:09:50.480Z,1308.00
2023-01-29T09:10:50.479Z,1268.00
2023-01-29T09:11:50.477Z,1280.00
2023-01-29T09:12:50.432Z,1372.00
2023-01-29T09:13:50.437Z,1528.00
2023-01-29T09:14:50.413Z,1444.00
2023-01-29T09:15:50.403Z,1388.00
2023-01-29T09:16:50.435Z,1208.00
2023-01-29T09:17:50.462Z,1084.00
2023-01-29T09:18:50.382Z,1040.00
2023-01-29T09:19:50.356Z,1008.00
2023-01-29T09:20:50.383Z,992.00
2023-01-29T09:21:50.341Z,1008.00
2023-01-29T09:22:50.345Z,1048.00
2023-01-29T09:23:50.326Z,1132.00
2023-01-29T09:24:50.299Z,1252.00
2023-01-29T09:25:50.305Z,1332.00
2023-01-29T09:26:50.274Z,1468.00
2023-01-29T09:27:50.293Z,1520.00
2023-01-29T09:28:50.254Z,1516.00
2023-01-29T09:29:50.246Z,1544.00
2023-01-29T09:30:50.442Z,1592.00
2023-01-29T09:31:50.407Z,1556.00
2023-01-29T09:32:53.565Z,1544.00
2023-01-29T09:33:50.207Z,1640.00
2023-01-29T09:34:50.202Z,1876.00
2023-01-29T09:35:50.188Z,2348.00
2023-01-29T09:36:50.168Z,2352.00
2023-01-29T09:37:50.159Z,1896.00
2023-01-29T09:38:50.154Z,1860.00
2023-01-29T09:39:50.144Z,1860.00
2023-01-29T09:40:50.134Z,2344.00
2023-01-29T09:41:50.113Z,2596.00
2023-01-29T09:42:50.187Z,2784.00
2023-01-29T09:43:50.110Z,2984.00
2023-01-29T09:44:50.102Z,3148.00
2023-01-29T09:45:50.161Z,3216.00
2023-01-29T09:46:50.068Z,3096.00
2023-01-29T09:47:50.060Z,2940.00
2023-01-29T09:48:50.058Z,2916.00
2023-01-29T09:49:50.040Z,2940.00
2023-01-29T09:50:50.032Z,3016.00
2023-01-29T09:51:50.020Z,3068.00
2023-01-29T09:52:49.992Z,3120.00
2023-01-29T09:53:50.066Z,3188.00
2023-01-29T09:54:49.987Z,3148.00
2023-01-29T09:55:49.978Z,2944.00
2023-01-29T09:56:49.966Z,2904.00
2023-01-29T09:57:49.948Z,2820.00
2023-01-29T09:58:49.964Z,2796.00
2023-01-29T09:59:49.929Z,3068.00
2023-01-29T10:00:49.899Z,2936.00
2023-01-29T10:01:50.083Z,2316.00
2023-01-29T10:02:49.881Z,2768.00
2023-01-29T10:03:49.888Z,3120.00
2023-01-29T10:04:49.998Z,3240.00
2023-01-29T10:05:49.845Z,3444.00
2023-01-29T10:06:49.896Z,3568.00
2023-01-29T10:07:49.823Z,3560.00
2023-01-29T10:08:49.835Z,3588.00
2023-01-29T10:09:49.816Z,3648.00
2023-01-29T10:10:49.798Z,3676.00
2023-01-29T10:11:49.782Z,3776.00
2023-01-29T10:12:49.788Z,3808.00
2023-01-29T10:13:49.764Z,3820.00
2023-01-29T10:14:49.781Z,3724.00
2023-01-29T10:15:49.772Z,3596.00
2023-01-29T10:16:49.760Z,3604.00
2023-01-29T10:17:50.549Z,3648.00
2023-01-29T10:18:49.715Z,3660.00
2023-01-29T10:19:49.692Z,3596.00
2023-01-29T10:20:49.702Z,3544.00
2023-01-29T10:21:49.683Z,3672.00
2023-01-29T10:22:49.665Z,3860.00
2023-01-29T10:23:49.651Z,3892.00
2023-01-29T10:24:49.639Z,3788.00
2023-01-29T10:25:49.696Z,3848.00
2023-01-29T10:26:49.664Z,3844.00
2023-01-29T10:27:49.631Z,3856.00
2023-01-29T10:28:49.606Z,3888.00
2023-01-29T10:29:49.596Z,3964.00
2023-01-29T10:30:49.651Z,4020.00
2023-01-29T10:31:49.762Z,3980.00
2023-01-29T10:32:49.559Z,3888.00
2023-01-29T10:34:01.477Z,3740.00
2023-01-29T10:34:50.540Z,3652.00
2023-01-29T10:35:49.534Z,3544.00
2023-01-29T10:36:49.536Z,3356.00
2023-01-29T10:37:49.495Z,3192.00
2023-01-29T10:38:49.495Z,3120.00
2023-01-29T10:39:49.483Z,3032.00
2023-01-29T10:40:49.468Z,3008.00
2023-01-29T10:41:49.454Z,3204.00
2023-01-29T10:42:49.451Z,3484.00
2023-01-29T10:43:49.426Z,3728.00
2023-01-29T10:44:49.438Z,3620.00
2023-01-29T10:45:49.427Z,3280.00
2023-01-29T10:46:49.403Z,3008.00
2023-01-29T10:47:49.572Z,2836.00
2023-01-29T10:48:49.371Z,2772.00
2023-01-29T10:49:50.299Z,2800.00
2023-01-29T10:50:49.363Z,2616.00
2023-01-29T10:51:49.356Z,2368.00
2023-01-29T10:52:49.328Z,2272.00
2023-01-29T10:53:49.342Z,2204.00
2023-01-29T10:54:49.303Z,2208.00
2023-01-29T10:55:49.308Z,2140.00
2023-01-29T10:56:49.281Z,1964.00
2023-01-29T10:57:49.282Z,1692.00
2023-01-29T10:58:49.284Z,1524.00
2023-01-29T10:59:49.262Z,1568.00
2023-01-29T11:00:49.248Z,1708.00
2023-01-29T11:01:49.267Z,1908.00
2023-01-29T11:02:49.352Z,2064.00
2023-01-29T11:03:49.217Z,2096.00
2023-01-29T11:04:49.188Z,2268.00
2023-01-29T11:05:49.184Z,2556.00
2023-01-29T11:06:49.169Z,2752.00
2023-01-29T11:07:49.172Z,2808.00
2023-01-29T11:08:49.165Z,2820.00
2023-01-29T11:09:49.148Z,2932.00
2023-01-29T11:10:49.134Z,2912.00
2023-01-29T11:11:49.130Z,2952.00
2023-01-29T11:12:49.126Z,2976.00
2023-01-29T11:13:49.105Z,3012.00
2023-01-29T11:14:49.111Z,2972.00
2023-01-29T11:15:49.069Z,2920.00
2023-01-29T11:16:49.274Z,2764.00
2023-01-29T11:17:49.067Z,2628.00
2023-01-29T11:18:49.034Z,2628.00
2023-01-29T11:19:49.055Z,2604.00
2023-01-29T11:20:49.010Z,2728.00
2023-01-29T11:21:49.004Z,2792.00
2023-01-29T11:22:48.989Z,2976.00
2023-01-29T11:23:49.001Z,2612.00
2023-01-29T11:24:49.018Z,2888.00
2023-01-29T11:25:48.959Z,3384.00
2023-01-29T11:26:48.947Z,3504.00
2023-01-29T11:27:48.938Z,3456.00
2023-01-29T11:28:48.927Z,3420.00
2023-01-29T11:29:48.940Z,3476.00
2023-01-29T11:30:48.956Z,3412.00
2023-01-29T11:31:48.965Z,3184.00
2023-01-29T11:32:48.898Z,3096.00
2023-01-29T11:33:48.883Z,2924.00
2023-01-29T11:34:48.867Z,3020.00
2023-01-29T11:35:48.861Z,2904.00
2023-01-29T11:36:48.832Z,2936.00
2023-01-29T11:37:48.825Z,3012.00
2023-01-29T11:38:48.822Z,3012.00
2023-01-29T11:39:48.819Z,2968.00
2023-01-29T11:40:48.816Z,2896.00
2023-01-29T11:41:48.779Z,2864.00
2023-01-29T11:42:48.786Z,2936.00
2023-01-29T11:43:48.773Z,2952.00
2023-01-29T11:44:48.759Z,2944.00
2023-01-29T11:45:48.750Z,2988.00
2023-01-29T11:46:48.761Z,3064.00
2023-01-29T11:47:48.738Z,3220.00
2023-01-29T11:48:48.698Z,3368.00
2023-01-29T11:49:48.775Z,3420.00
2023-01-29T11:50:48.692Z,3404.00
2023-01-29T11:51:48.695Z,3252.00
2023-01-29T11:52:48.664Z,3256.00
2023-01-29T11:53:48.647Z,3244.00
2023-01-29T11:54:48.647Z,3320.00
2023-01-29T11:55:50.993Z,3288.00
2023-01-29T11:56:48.625Z,3284.00
2023-01-29T11:57:48.624Z,3352.00
2023-01-29T11:58:48.599Z,3308.00
2023-01-29T11:59:48.611Z,3308.00
2023-01-29T12:00:48.684Z,3288.00
2023-01-29T12:01:48.584Z,3272.00
2023-01-29T12:02:48.558Z,3268.00
2023-01-29T12:03:48.617Z,3164.00
2023-01-29T12:04:48.529Z,3112.00
2023-01-29T12:05:48.578Z,2996.00
2023-01-29T12:06:48.523Z,2944.00
2023-01-29T12:07:48.489Z,2968.00
2023-01-29T12:08:48.492Z,2936.00
2023-01-29T12:09:48.481Z,3000.00
2023-01-29T12:10:48.479Z,3068.00
2023-01-29T12:11:48.440Z,2984.00
2023-01-29T12:12:48.462Z,2924.00
2023-01-29T12:13:48.421Z,2928.00
2023-01-29T12:14:48.414Z,3036.00
2023-01-29T12:15:48.506Z,2980.00
2023-01-29T12:16:48.433Z,3008.00
2023-01-29T12:17:48.470Z,3056.00
2023-01-29T12:18:48.410Z,3048.00
2023-01-29T12:19:48.360Z,2968.00
2023-01-29T12:20:48.360Z,3092.00
2023-01-29T12:21:48.352Z,3108.00
2023-01-29T12:22:48.350Z,3060.00
2023-01-29T12:23:48.309Z,3048.00
2023-01-29T12:24:48.304Z,3112.00
2023-01-29T12:25:48.304Z,3120.00
2023-01-29T12:26:48.279Z,3124.00
2023-01-29T12:27:48.291Z,2984.00
2023-01-29T12:28:48.270Z,2888.00
2023-01-29T12:29:48.256Z,2864.00
2023-01-29T12:30:48.271Z,2868.00
2023-01-29T12:31:48.235Z,2920.00
2023-01-29T12:32:48.229Z,3008.00
2023-01-29T12:33:48.260Z,3028.00
2023-01-29T12:34:48.205Z,3016.00
2023-01-29T12:35:48.176Z,2996.00
2023-01-29T12:36:48.176Z,2980.00
2023-01-29T12:37:48.195Z,3012.00
2023-01-29T12:38:48.145Z,2992.00
2023-01-29T12:39:48.147Z,3076.00
2023-01-29T12:40:48.122Z,3272.00
2023-01-29T12:41:48.106Z,3384.00
2023-01-29T12:42:48.113Z,3364.00
2023-01-29T12:43:48.122Z,3288.00
2023-01-29T12:44:48.092Z,3348.00
2023-01-29T12:45:48.063Z,3588.00
2023-01-29T12:46:48.137Z,3692.00
2023-01-29T12:47:48.044Z,3760.00
2023-01-29T12:48:48.046Z,3740.00
2023-01-29T12:49:48.030Z,3768.00
2023-01-29T12:50:48.024Z,3828.00
2023-01-29T12:51:48.001Z,3872.00
2023-01-29T12:52:47.989Z,3820.00
2023-01-29T12:53:48.011Z,3672.00
2023-01-29T12:54:47.976Z,3696.00
2023-01-29T12:55:47.954Z,3756.00
2023-01-29T12:56:47.947Z,3868.00
2023-01-29T12:57:47.937Z,4052.00
2023-01-29T12:58:47.947Z,4184.00
2023-01-29T12:59:47.920Z,4404.00
2023-01-29T13:00:47.987Z,4764.00
2023-01-29T13:01:47.899Z,4884.00
2023-01-29T13:02:48.007Z,4980.00
2023-01-29T13:03:47.889Z,4748.00
2023-01-29T13:04:47.854Z,5812.00
2023-01-29T13:05:47.843Z,4148.00
2023-01-29T13:06:47.852Z,4204.00
2023-01-29T13:07:47.838Z,4884.00
2023-01-29T13:08:47.810Z,5508.00
2023-01-29T13:09:47.810Z,7616.00
2023-01-29T13:10:47.787Z,4360.00
2023-01-29T13:11:47.773Z,4312.00
2023-01-29T13:12:47.781Z,4344.00
2023-01-29T13:13:47.775Z,4068.00
2023-01-29T13:14:47.765Z,4552.00
2023-01-29T13:15:47.737Z,6760.00
2023-01-29T13:16:47.721Z,4700.00
2023-01-29T13:17:47.706Z,6312.00
2023-01-29T13:18:47.728Z,4136.00
2023-01-29T13:19:47.769Z,4236.00
2023-01-29T13:20:47.689Z,3824.00
2023-01-29T13:21:47.662Z,4184.00
2023-01-29T13:22:47.668Z,4532.00
2023-01-29T13:23:47.640Z,4200.00
2023-01-29T13:24:58.747Z,4360.00
2023-01-29T13:25:48.639Z,4760.00
2023-01-29T13:26:47.716Z,3632.00
2023-01-29T13:27:47.623Z,3632.00
2023-01-29T13:28:47.601Z,3996.00
2023-01-29T13:29:47.573Z,3960.00
2023-01-29T13:30:47.760Z,3076.00
2023-01-29T13:31:47.712Z,2980.00
2023-01-29T13:32:48.111Z,3172.00
2023-01-29T13:33:47.546Z,3152.00
2023-01-29T13:34:47.523Z,2588.00
2023-01-29T13:35:47.531Z,2668.00
2023-01-29T13:36:47.516Z,2880.00
2023-01-29T13:37:47.483Z,3064.00
2023-01-29T13:38:47.489Z,3144.00
2023-01-29T13:39:47.492Z,2888.00
2023-01-29T13:40:47.487Z,2904.00
2023-01-29T13:41:47.451Z,2732.00
2023-01-29T13:42:47.431Z,2828.00
2023-01-29T13:43:48.331Z,2800.00
2023-01-29T13:44:47.408Z,3380.00
2023-01-29T13:45:47.438Z,3140.00
2023-01-29T13:46:47.419Z,2924.00
2023-01-29T13:47:47.370Z,2900.00
2023-01-29T13:48:47.382Z,2944.00
2023-01-29T13:49:47.369Z,2864.00
2023-01-29T13:50:47.358Z,2876.00
2023-01-29T13:51:47.344Z,2796.00
2023-01-29T13:52:47.337Z,2556.00
2023-01-29T13:53:47.317Z,2444.00
2023-01-29T13:54:47.297Z,2424.00
2023-01-29T13:55:47.297Z,2328.00
2023-01-29T13:56:47.307Z,2212.00
2023-01-29T13:57:47.287Z,2280.00
2023-01-29T13:58:47.285Z,2224.00
2023-01-29T13:59:47.251Z,2092.00
2023-01-29T14:00:47.230Z,2024.00
2023-01-29T14:01:47.255Z,2112.00
2023-01-29T14:02:47.289Z,2296.00
2023-01-29T14:04:03.614Z,2424.00
2023-01-29T14:04:48.198Z,2356.00
2023-01-29T14:05:47.185Z,2068.00
2023-01-29T14:06:47.200Z,2096.00
2023-01-29T14:07:47.160Z,2068.00
2023-01-29T14:08:47.159Z,2016.00
2023-01-29T14:09:47.125Z,1972.00
2023-01-29T14:10:47.133Z,2052.00
2023-01-29T14:11:47.121Z,2116.00
2023-01-29T14:12:47.123Z,2020.00
2023-01-29T14:13:47.113Z,1848.00
2023-01-29T14:14:47.086Z,1732.00
2023-01-29T14:15:47.074Z,1628.00
2023-01-29T14:16:47.093Z,1556.00
2023-01-29T14:17:47.067Z,1432.00
2023-01-29T14:18:47.043Z,1332.00
2023-01-29T14:19:47.031Z,1260.00
2023-01-29T14:20:47.099Z,1224.00
2023-01-29T14:21:46.998Z,1196.00
2023-01-29T14:22:46.999Z,1176.00
2023-01-29T14:23:47.054Z,1080.00
2023-01-29T14:24:46.972Z,1080.00
2023-01-29T14:25:46.947Z,1060.00
2023-01-29T14:26:46.997Z,984.00
2023-01-29T14:27:46.930Z,884.00
2023-01-29T14:28:46.944Z,792.00
2023-01-29T14:29:46.918Z,732.00
2023-01-29T14:30:47.076Z,772.00
2023-01-29T14:31:46.994Z,800.00
2023-01-29T14:32:46.892Z,812.00
2023-01-29T14:33:46.884Z,804.00
2023-01-29T14:34:46.863Z,796.00
2023-01-29T14:35:46.852Z,812.00
2023-01-29T14:36:46.829Z,832.00
2023-01-29T14:37:46.829Z,816.00
2023-01-29T14:38:46.805Z,784.00
2023-01-29T14:39:46.809Z,756.00
2023-01-29T14:40:46.796Z,728.00
2023-01-29T14:41:46.782Z,720.00
2023-01-29T14:42:46.780Z,716.00
2023-01-29T14:43:46.746Z,692.00
2023-01-29T14:44:46.768Z,640.00
2023-01-29T14:45:46.767Z,652.00
2023-01-29T14:46:46.737Z,640.00
2023-01-29T14:47:46.716Z,592.00
2023-01-29T14:48:46.695Z,568.00
2023-01-29T14:49:46.695Z,556.00
2023-01-29T14:50:46.696Z,544.00
2023-01-29T14:51:46.689Z,536.00
2023-01-29T14:52:46.653Z,532.00
2023-01-29T14:53:46.635Z,528.00
2023-01-29T14:54:46.630Z,504.00
2023-01-29T14:55:46.630Z,492.00
2023-01-29T14:56:46.617Z,488.00
2023-01-29T14:57:46.591Z,508.00
2023-01-29T14:58:46.596Z,512.00
2023-01-29T14:59:46.589Z,488.00
2023-01-29T15:00:46.582Z,508.00
2023-01-29T15:01:46.659Z,524.00
2023-01-29T15:02:46.601Z,500.00
2023-01-29T15:03:46.541Z,492.00
2023-01-29T15:04:46.528Z,488.00
2023-01-29T15:05:46.529Z,472.00
2023-01-29T15:06:46.535Z,428.00
2023-01-29T15:07:46.489Z,416.00
2023-01-29T15:08:46.474Z,404.00
2023-01-29T15:09:46.476Z,376.00
2023-01-29T15:10:46.483Z,344.00
2023-01-29T15:11:46.438Z,312.00
2023-01-29T15:12:46.426Z,288.00
2023-01-29T15:13:46.427Z,272.00
2023-01-29T15:14:46.418Z,264.00
2023-01-29T15:15:46.455Z,252.00
2023-01-29T15:16:46.395Z,240.00
2023-01-29T15:17:46.385Z,236.00
2023-01-29T15:18:46.363Z,228.00
2023-01-29T15:19:46.346Z,220.00
2023-01-29T15:20:46.387Z,212.00
2023-01-29T15:21:46.338Z,208.00
2023-01-29T15:22:46.333Z,196.00
2023-01-29T15:23:46.312Z,192.00
2023-01-29T15:24:46.299Z,184.00
2023-01-29T15:25:46.291Z,184.00
2023-01-29T15:26:46.295Z,184.00
2023-01-29T15:27:46.254Z,180.00
2023-01-29T15:28:54.842Z,172.00
2023-01-29T15:29:47.231Z,164.00
2023-01-29T15:30:46.339Z,164.00
2023-01-29T15:31:47.074Z,160.00
2023-01-29T15:32:46.213Z,156.00
2023-01-29T15:33:46.227Z,148.00
2023-01-29T15:34:46.225Z,140.00
2023-01-29T15:35:46.326Z,140.00
2023-01-29T15:36:46.173Z,140.00
2023-01-29T15:37:46.152Z,132.00
2023-01-29T15:38:46.137Z,128.00
2023-01-29T15:39:46.152Z,128.00
2023-01-29T15:40:46.115Z,120.00
2023-01-29T15:41:46.186Z,120.00
2023-01-29T15:42:46.105Z,120.00
2023-01-29T15:43:46.081Z,112.00
2023-01-29T15:44:46.104Z,108.00
2023-01-29T15:45:46.071Z,104.00
2023-01-29T15:46:46.077Z,104.00
2023-01-29T15:47:46.082Z,100.00
2023-01-29T15:48:46.042Z,100.00
2023-01-29T15:49:46.035Z,96.00
2023-01-29T15:50:46.005Z,92.00
2023-01-29T15:51:46.008Z,92.00
2023-01-29T15:52:46.010Z,88.00
2023-01-29T15:53:45.964Z,84.00
2023-01-29T15:54:45.970Z,84.00
2023-01-29T15:55:45.941Z,80.00
2023-01-29T15:56:45.948Z,76.00
2023-01-29T15:57:45.960Z,72.00
2023-01-29T15:58:45.940Z,68.00
2023-01-29T15:59:45.903Z,64.00
2023-01-29T16:00:45.894Z,64.00
2023-01-29T16:01:45.991Z,64.00
2023-01-29T16:02:45.993Z,60.00
2023-01-29T16:03:45.872Z,60.00
2023-01-29T16:04:45.843Z,56.00
2023-01-29T16:05:45.854Z,56.00
2023-01-29T16:06:45.851Z,52.00
2023-01-29T16:07:45.825Z,48.00
2023-01-29T16:08:45.820Z,44.00
2023-01-29T16:09:45.826Z,40.00
2023-01-29T16:10:45.779Z,40.00
2023-01-29T16:11:45.790Z,36.00
2023-01-29T16:12:45.772Z,36.00
2023-01-29T16:13:46.354Z,36.00
2023-01-29T16:14:45.753Z,32.00
2023-01-29T16:15:45.814Z,28.00
2023-01-29T16:16:45.769Z,28.00
2023-01-29T16:17:45.712Z,24.00
2023-01-29T16:18:58.868Z,20.00
2023-01-29T16:19:46.748Z,20.00
2023-01-29T16:20:45.677Z,20.00
2023-01-29T16:21:45.671Z,16.00
2023-01-29T16:22:45.687Z,16.00
2023-01-29T16:23:45.655Z,16.00
2023-01-29T16:24:45.621Z,12.00
2023-01-29T16:25:45.627Z,12.00
2023-01-29T16:26:45.658Z,12.00
2023-01-29T16:27:45.603Z,12.00
2023-01-29T16:28:45.603Z,8.00
2023-01-29T16:29:45.571Z,8.00
2023-01-29T16:30:45.658Z,4.00
2023-01-29T16:31:45.639Z,8.00
2023-01-29T16:32:45.544Z,4.00
2023-01-29T16:33:45.587Z,8.00
2023-01-29T16:34:45.538Z,4.00
2023-01-29T16:35:45.546Z,4.00
2023-01-29T16:36:45.514Z,4.00
2023-01-29T16:37:45.480Z,0.00
2023-01-29T16:38:45.464Z,4.00
2023-01-29T16:39:45.471Z,0.00
2023-01-29T16:40:45.449Z,4.00
2023-01-29T16:41:45.447Z,4.00
2023-01-29T16:42:45.468Z,4.00
2023-01-29T16:43:45.413Z,0.00
2023-01-29T16:44:45.418Z,0.00
2023-01-29T16:45:45.404Z,0.00
2023-01-29T16:46:45.446Z,0.00
2023-01-29T16:47:45.383Z,0.00
2023-01-29T16:48:45.373Z,0.00
2023-01-29T16:49:45.344Z,0.00
2023-01-29T16:50:54.696Z,0.00
2023-01-29T16:51:46.349Z,0.00
2023-01-29T16:52:45.315Z,0.00
2023-01-29T16:53:45.299Z,0.00
2023-01-29T16:54:45.300Z,0.00
2023-01-29T16:55:45.305Z,0.00
2023-01-29T16:56:45.278Z,0.00
2023-01-29T16:57:45.260Z,0.00
2023-01-29T16:58:45.254Z,0.00
2023-01-29T16:59:45.238Z,0.00
2023-01-29T17:00:45.282Z,0.00
2023-01-29T17:01:45.250Z,0.00
2023-01-29T17:02:45.207Z,0.00
2023-01-29T17:03:45.227Z,0.00
2023-01-29T17:04:45.175Z,0.00
2023-01-29T17:05:45.187Z,0.00
2023-01-29T17:06:45.175Z,0.00
2023-01-29T17:07:45.152Z,0.00
2023-01-29T17:08:45.142Z,0.00
2023-01-29T17:09:45.134Z,0.00
2023-01-29T17:10:45.136Z,0.00
2023-01-29T17:11:45.099Z,0.00
2023-01-29T17:12:45.083Z,0.00
2023-01-29T17:13:45.090Z,0.00
2023-01-29T17:14:45.075Z,0.00
2023-01-29T17:15:45.100Z,0.00
2023-01-29T17:16:45.039Z,0.00
2023-01-29T17:17:45.044Z,0.00
2023-01-29T17:18:45.030Z,0.00
2023-01-29T17:19:45.020Z,0.00
2023-01-29T17:20:44.995Z,0.00
2023-01-29T17:21:45.021Z,0.00
2023-01-29T17:22:44.987Z,0.00
2023-01-29T17:23:44.978Z,0.00
2023-01-29T17:24:44.955Z,0.00
2023-01-29T17:25:44.963Z,0.00
2023-01-29T17:26:45.010Z,0.00
2023-01-29T17:27:44.937Z,0.00
2023-01-29T17:28:44.930Z,0.00
2023-01-29T17:29:44.905Z,0.00
2023-01-29T17:30:56.656Z,0.00
2023-01-29T17:31:45.923Z,0.00
2023-01-29T17:32:47.545Z,0.00
2023-01-29T17:33:44.855Z,0.00
2023-01-29T17:34:44.837Z,0.00
2023-01-29T17:35:44.846Z,0.00
2023-01-29T17:36:44.848Z,0.00
2023-01-29T17:37:44.816Z,0.00
2023-01-29T17:38:44.802Z,0.00
2023-01-29T17:39:44.797Z,0.00
2023-01-29T17:40:44.781Z,0.00
2023-01-29T17:41:47.310Z,0.00
2023-01-29T17:42:44.762Z,0.00
2023-01-29T17:43:44.766Z,0.00
2023-01-29T17:44:44.727Z,0.00
2023-01-29T17:45:44.759Z,0.00
2023-01-29T17:46:44.731Z,0.00
2023-01-29T17:47:44.726Z,0.00
2023-01-29T17:48:44.687Z,0.00
2023-01-29T17:49:44.678Z,0.00
2023-01-29T17:50:44.660Z,0.00
2023-01-29T17:51:44.666Z,0.00
2023-01-29T17:52:44.638Z,0.00
2023-01-29T17:53:46.453Z,0.00
2023-01-29T17:54:44.616Z,0.00
2023-01-29T17:55:44.627Z,0.00
2023-01-29T17:56:44.594Z,0.00
2023-01-29T17:57:44.608Z,0.00
2023-01-29T17:58:44.664Z,0.00
2023-01-29T17:59:44.578Z,0.00
2023-01-29T18:00:44.569Z,0.00
2023-01-29T18:01:44.552Z,0.00
2023-01-29T18:02:44.531Z,0.00
2023-01-29T18:03:44.585Z,0.00
2023-01-29T18:04:44.519Z,0.00
2023-01-29T18:05:44.511Z,0.00
2023-01-29T18:06:44.493Z,0.00
2023-01-29T18:07:44.480Z,0.00
2023-01-29T18:08:44.460Z,0.00
2023-01-29T18:09:44.494Z,0.00
2023-01-29T18:10:44.435Z,0.00
2023-01-29T18:11:44.442Z,0.00
2023-01-29T18:12:44.534Z,0.00
2023-01-29T18:13:44.486Z,0.00
2023-01-29T18:14:44.496Z,0.00
2023-01-29T18:15:44.465Z,0.00
2023-01-29T18:16:44.486Z,0.00
2023-01-29T18:17:44.385Z,0.00
2023-01-29T18:18:44.395Z,0.00
2023-01-29T18:19:44.367Z,0.00
2023-01-29T18:20:44.330Z,0.00
2023-01-29T18:21:44.337Z,0.00
2023-01-29T18:22:44.395Z,0.00
2023-01-29T18:23:44.373Z,0.00
2023-01-29T18:24:44.304Z,0.00
2023-01-29T18:25:44.305Z,0.00
2023-01-29T18:26:44.343Z,0.00
2023-01-29T18:27:44.265Z,0.00
2023-01-29T18:28:44.247Z,0.00
2023-01-29T18:29:44.245Z,0.00
2023-01-29T18:30:44.302Z,0.00
2023-01-29T18:31:44.271Z,0.00
2023-01-29T18:32:44.218Z,0.00
2023-01-29T18:33:44.185Z,0.00
2023-01-29T18:34:44.180Z,0.00
2023-01-29T18:35:44.184Z,0.00
2023-01-29T18:36:44.146Z,0.00
2023-01-29T18:37:44.159Z,0.00
2023-01-29T18:38:44.133Z,0.00
2023-01-29T18:39:44.118Z,0.00
2023-01-29T18:40:44.121Z,0.00
2023-01-29T18:41:44.098Z,0.00
2023-01-29T18:42:44.092Z,0.00
2023-01-29T18:43:44.115Z,0.00
2023-01-29T18:44:44.107Z,0.00
2023-01-29T18:45:44.143Z,0.00
2023-01-29T18:46:44.063Z,0.00
2023-01-29T18:47:44.058Z,0.00
2023-01-29T18:48:44.012Z,0.00
2023-01-29T18:49:44.022Z,0.00
2023-01-29T18:50:43.992Z,0.00
2023-01-29T18:51:44.030Z,0.00
2023-01-29T18:52:43.983Z,0.00
2023-01-29T18:53:46.494Z,0.00
2023-01-29T18:54:43.946Z,0.00
2023-01-29T18:55:43.945Z,0.00
2023-01-29T18:57:08.256Z,0.00
2023-01-29T18:58:27.495Z,0.00
2023-01-29T18:58:44.900Z,0.00
2023-01-29T18:59:44.908Z,0.00
2023-01-29T19:00:44.002Z,0.00
2023-01-29T19:01:43.883Z,0.00
2023-01-29T19:02:43.880Z,0.00
2023-01-29T19:03:43.868Z,0.00
2023-01-29T19:04:43.837Z,0.00
2023-01-29T19:05:43.843Z,0.00
2023-01-29T19:06:43.826Z,0.00
2023-01-29T19:07:43.880Z,0.00
2023-01-29T19:08:43.819Z,0.00
2023-01-29T19:09:43.785Z,0.00
2023-01-29T19:10:43.777Z,0.00
2023-01-29T19:11:43.784Z,0.00
2023-01-29T19:12:43.789Z,0.00
2023-01-29T19:13:43.752Z,0.00
2023-01-29T19:14:43.743Z,0.00
2023-01-29T19:15:43.719Z,0.00
2023-01-29T19:16:43.703Z,0.00
2023-01-29T19:17:43.727Z,0.00
2023-01-29T19:18:43.695Z,0.00
2023-01-29T19:19:43.692Z,0.00
2023-01-29T19:20:43.672Z,0.00
2023-01-29T19:21:43.670Z,0.00
2023-01-29T19:22:43.666Z,0.00
2023-01-29T19:23:43.645Z,0.00
2023-01-29T19:24:43.636Z,0.00
2023-01-29T19:25:43.609Z,0.00
2023-01-29T19:26:43.687Z,0.00
2023-01-29T19:27:43.624Z,0.00
2023-01-29T19:28:43.583Z,0.00
2023-01-29T19:29:43.563Z,0.00
2023-01-29T19:30:43.610Z,0.00
2023-01-29T19:31:43.584Z,0.00
2023-01-29T19:32:43.540Z,0.00
2023-01-29T19:33:43.550Z,0.00
2023-01-29T19:34:43.506Z,0.00
2023-01-29T19:35:43.517Z,0.00
2023-01-29T19:36:43.488Z,0.00
2023-01-29T19:37:43.495Z,0.00
2023-01-29T19:38:43.571Z,0.00
2023-01-29T19:39:43.536Z,0.00
2023-01-29T19:40:43.548Z,0.00
2023-01-29T19:41:43.519Z,0.00
2023-01-29T19:42:43.430Z,0.00
2023-01-29T19:43:43.498Z,0.00
2023-01-29T19:44:43.469Z,0.00
2023-01-29T19:45:50.137Z,0.00
2023-01-29T19:46:44.394Z,0.00
2023-01-29T19:47:43.440Z,0.00
2023-01-29T19:48:43.345Z,0.00
2023-01-29T19:49:43.383Z,0.00
2023-01-29T19:50:43.329Z,0.00
2023-01-29T19:51:43.330Z,0.00
2023-01-29T19:52:51.788Z,0.00
2023-01-29T19:53:44.293Z,0.00
2023-01-29T19:54:43.308Z,0.00
2023-01-29T19:55:43.284Z,0.00
2023-01-29T19:56:43.260Z,0.00
2023-01-29T19:57:43.257Z,0.00